Главная страница
METAR-TAF:

METAR-TAF

Аэропорты :

Остафьево

Москва, Россия

широта: 55-30-42N, долгота: 037-30-26E, высота над уровнем моря: 173 м

Текущие метеонаблюдения

Эта сводка был подготовлена 6 часа и 25 минут назад, в 20:30 UTC
Ветер 4 Узел от южный-юго-западный
Температура 17°C
Влажность 88%
Давление 1012 hPa
Видимость 10 км и более
Нет облачности ниже 1500 м, и нет кучево-дождевой облачности

METAR: UUMO 202030Z 20002MPS CAVOK 17/15 Q1012 R26/090060 NOSIG RMK QFE744/0992

Время: 05:55 (02:55 UTC)

Прогноз

Эта сводка был подготовлена 10 часа и 7 минут назад, в 16:48 UTC
Прогноз действительный с 20-го 18 UTC до 21-го 03 UTC
Ветер 4 Узел от западный
Видимость 10 км и более
Рассеянная облачность на высоте 3000 фута
временами
С 20-го 20 UTC до 21-го 03 UTC
Отдельные облака на высоте 2000 фута, Кучево-дождевые.
небольшие ливневые дожди

TAF: UUMO 201648Z 2018/2103 28002MPS 9999 BKN030 TEMPO 2020/2103 -SHRA SCT020CB

Метеонаблюдения и прогнозы для более 4000 аэропортов (сводки METAR и TAF).

Имеющиеся станции представлены на карте желтыми и красными точками.

Чтобы увидеть название станции, наведите на нее мышь.

Затем щелкните, чтобы увидеть метеонаблюдения и метеопрогнозы.

Управление картой: чтобы увеличить масштаб, щелкните зеленые кнопки с черным крестиком; чтобы уменьшить масштаб, щелкните зеленую кнопку с тире; для просмотра соседних карт щелкайте зеленые стрелки.


METAR-TAF: